Central Virginia Flyers


Central Virginia Flyers is a 10 member flying club based in Richmond, VA at Hanover County Airport (KOFP). We own N787AT, a 1977 Cessna 172 with 180hp conversion. If you are interested in membership, please contact Brenton at brenton@cvflyers.org.


Aviation Digital Data Service (ADDS)

Output produced by METARs form (1834 UTC 20 December 2014)
found at http://aviationweather.gov/adds/metars/
 
KOFP 201754Z AUTO 00000KT 10SM OVC100 02/M06 A3030 RMK AO2 SLP261 T00171056 10022 21028 58015
KRIC 201754Z 00000KT 10SM SCT080 OVC100 03/M07 A3028 RMK AO2 SLP261 T00331067 10033 20000 58013
KRIC 201740Z 2018/2118 05005KT P6SM BKN070 OVC100 
     FM210200 04003KT P6SM BKN100 
     FM211500 06004KT P6SM BKN050